createdAt,value
2019-04-20T00:00:55.060Z,48.37
2019-04-20T00:03:33.853Z,48.65
2019-04-20T00:06:01.468Z,48.65
2019-04-20T00:08:37.539Z,49.23
2019-04-20T00:11:15.650Z,49.14
2019-04-20T00:13:51.766Z,48.96
2019-04-20T00:16:14.783Z,49.47
2019-04-20T00:18:52.980Z,49.36
2019-04-20T00:21:42.708Z,49.61
2019-04-20T00:24:22.929Z,49.89
2019-04-20T00:29:41.835Z,50.14
2019-04-20T00:32:06.086Z,50.33
2019-04-20T00:34:33.317Z,50.57
2019-04-20T00:37:02.196Z,50.88
2019-04-20T00:39:34.053Z,50.92
2019-04-20T00:42:09.629Z,51.18
2019-04-20T00:44:42.308Z,51.25
2019-04-20T00:47:25.368Z,51.58
2019-04-20T00:49:57.845Z,52.09
2019-04-20T00:52:31.056Z,51.86
2019-04-20T00:54:51.501Z,52.14
2019-04-20T00:57:35.882Z,52.09
2019-04-20T01:00:16.959Z,51.94
2019-04-20T01:02:41.962Z,51.91
2019-04-20T01:05:20.313Z,52.03
2019-04-20T01:07:56.592Z,51.96
2019-04-20T01:10:30.311Z,52.61
2019-04-20T01:13:04.179Z,52.63
2019-04-20T01:15:38.618Z,52.40
2019-04-20T01:18:03.481Z,52.43
2019-04-20T01:20:34.805Z,52.95
2019-04-20T01:23:10.132Z,53.05
2019-04-20T01:25:43.338Z,52.89
2019-04-20T01:28:27.504Z,53.63
2019-04-20T01:31:00.171Z,53.86
2019-04-20T01:33:34.363Z,53.91
2019-04-20T01:36:09.097Z,54.12
2019-04-20T01:38:42.800Z,54.33
2019-04-20T01:40:59.065Z,54.29
2019-04-20T01:43:31.195Z,54.01
2019-04-20T01:46:09.178Z,54.18
2019-04-20T01:48:39.683Z,54.42
2019-04-20T01:51:18.831Z,54.70
2019-04-20T01:54:02.151Z,54.52
2019-04-20T01:56:31.646Z,55.33
2019-04-20T01:59:10.722Z,55.03
2019-04-20T02:01:45.949Z,55.21
2019-04-20T02:04:28.616Z,55.77
2019-04-20T02:06:59.975Z,56.01
2019-04-20T02:09:31.147Z,56.08
2019-04-20T02:12:08.461Z,55.96
2019-04-20T02:14:42.691Z,55.37
2019-04-20T02:17:18.053Z,55.08
2019-04-20T02:19:59.838Z,55.19
2019-04-20T02:22:33.017Z,55.19
2019-04-20T02:24:47.117Z,55.18
2019-04-20T02:27:19.744Z,55.17
2019-04-20T02:30:22.073Z,55.13
2019-04-20T02:33:10.061Z,55.13
2019-04-20T02:35:42.551Z,54.97
2019-04-20T02:38:36.141Z,54.94
2019-04-20T02:40:52.635Z,55.08
2019-04-20T02:43:33.367Z,55.14
2019-04-20T02:48:21.682Z,55.42
2019-04-20T02:50:59.714Z,55.22
2019-04-20T02:56:04.723Z,54.99
2019-04-20T02:58:42.229Z,54.17
2019-04-20T03:01:05.070Z,53.01
2019-04-20T03:03:22.786Z,53.39
2019-04-20T03:06:04.623Z,53.55
2019-04-20T03:08:40.584Z,53.68
2019-04-20T03:11:14.659Z,53.93
2019-04-20T03:13:41.383Z,53.48
2019-04-20T03:16:16.517Z,52.61
2019-04-20T03:18:51.220Z,51.67
2019-04-20T03:21:24.837Z,51.01
2019-04-20T03:24:06.786Z,49.04
2019-04-20T03:26:42.664Z,49.35
2019-04-20T03:29:13.082Z,46.66
2019-04-20T03:37:21.894Z,48.69
2019-04-20T03:39:40.774Z,50.48
2019-04-20T03:41:59.326Z,46.71
2019-04-20T03:44:34.185Z,49.53
2019-04-20T03:47:08.869Z,46.51
2019-04-20T03:49:59.531Z,50.57
2019-04-20T03:52:32.836Z,50.57
2019-04-20T03:55:14.873Z,47.36
2019-04-20T03:57:51.244Z,50.65
2019-04-20T04:00:21.969Z,48.83
2019-04-20T04:03:12.380Z,50.34
2019-04-20T04:05:31.293Z,50.50
2019-04-20T04:08:00.115Z,48.71
2019-04-20T04:10:33.484Z,48.13
2019-04-20T04:13:15.100Z,49.78
2019-04-20T04:15:52.031Z,49.42
2019-04-20T04:18:28.121Z,50.28
2019-04-20T04:21:03.847Z,48.99
2019-04-20T04:23:51.033Z,48.99
2019-04-20T04:26:26.438Z,49.43
2019-04-20T04:29:00.650Z,45.25
2019-04-20T04:31:33.275Z,44.54
2019-04-20T04:34:04.908Z,45.82
2019-04-20T04:36:38.720Z,44.99
2019-04-20T04:39:15.223Z,45.19
2019-04-20T04:41:39.801Z,44.72
2019-04-20T04:44:17.439Z,45.06
2019-04-20T04:46:33.877Z,45.41
2019-04-20T04:49:14.708Z,45.09
2019-04-20T04:51:46.804Z,45.60
2019-04-20T04:54:22.193Z,46.17
2019-04-20T05:00:26.567Z,45.74
2019-04-20T05:03:02.002Z,45.88
2019-04-20T05:05:49.149Z,45.88
2019-04-20T05:08:12.988Z,46.10
2019-04-20T05:10:37.368Z,46.17
2019-04-20T05:13:09.156Z,46.71
2019-04-20T05:15:57.065Z,44.33
2019-04-20T05:18:41.523Z,44.33
2019-04-20T05:21:13.107Z,44.96
2019-04-20T05:23:35.163Z,45.51
2019-04-20T05:26:27.989Z,45.12
2019-04-20T05:28:56.901Z,45.38
2019-04-20T05:31:23.223Z,44.64
2019-04-20T05:34:14.393Z,43.90
2019-04-20T05:36:46.243Z,44.72
2019-04-20T05:39:29.554Z,43.93
2019-04-20T05:41:45.766Z,43.01
2019-04-20T05:44:22.161Z,43.22
2019-04-20T05:47:00.941Z,43.27
2019-04-20T05:49:29.740Z,42.23
2019-04-20T05:52:20.210Z,41.62
2019-04-20T05:54:39.080Z,41.70
2019-04-20T05:57:14.956Z,41.18
2019-04-20T05:59:51.812Z,40.46
2019-04-20T06:02:17.015Z,40.29
2019-04-20T06:04:59.642Z,37.04
2019-04-20T06:07:26.803Z,35.48
2019-04-20T06:09:59.846Z,35.86
2019-04-20T06:12:31.988Z,36.17
2019-04-20T06:15:04.085Z,37.43
2019-04-20T06:17:58.367Z,37.45
2019-04-20T06:20:35.834Z,33.77
2019-04-20T06:23:33.288Z,36.15
2019-04-20T06:26:33.605Z,35.93
2019-04-20T06:28:45.090Z,35.32
2019-04-20T06:31:28.470Z,34.71
2019-04-20T06:36:53.538Z,33.27
2019-04-20T06:39:30.851Z,34.57
2019-04-20T06:44:46.010Z,35.28
2019-04-20T06:47:16.214Z,35.58
2019-04-20T06:49:56.685Z,33.55
2019-04-20T06:55:00.322Z,33.44
2019-04-20T06:57:37.195Z,33.42
2019-04-20T07:00:10.190Z,33.56
2019-04-20T07:02:41.390Z,33.46
2019-04-20T07:05:13.132Z,35.31
2019-04-20T07:07:47.490Z,33.23
2019-04-20T07:10:25.258Z,34.04
2019-04-20T07:12:55.389Z,33.51
2019-04-20T07:15:29.184Z,34.06
2019-04-20T07:18:09.236Z,33.65
2019-04-20T07:20:48.540Z,33.93
2019-04-20T07:23:23.846Z,33.70
2019-04-20T07:25:52.750Z,33.67
2019-04-20T07:28:27.789Z,31.85
2019-04-20T07:30:55.266Z,31.49
2019-04-20T07:33:33.443Z,32.14
2019-04-20T07:35:55.962Z,32.89
2019-04-20T07:41:19.423Z,31.61
2019-04-20T07:43:41.992Z,31.82
2019-04-20T07:46:23.134Z,32.14
2019-04-20T07:48:48.015Z,31.73
2019-04-20T07:51:09.171Z,32.42
2019-04-20T07:53:46.364Z,31.49
2019-04-20T07:56:30.422Z,31.33
2019-04-20T07:58:49.287Z,31.62
2019-04-20T08:01:53.067Z,32.04
2019-04-20T08:04:24.465Z,30.95
2019-04-20T08:06:49.872Z,29.94
2019-04-20T08:09:25.772Z,30.12
2019-04-20T08:12:11.748Z,29.69
2019-04-20T08:14:48.085Z,30.17
2019-04-20T08:17:26.826Z,29.46
2019-04-20T08:19:47.204Z,29.44
2019-04-20T08:22:27.035Z,29.68
2019-04-20T08:24:48.653Z,29.01
2019-04-20T08:27:13.173Z,28.15
2019-04-20T08:29:59.012Z,28.49
2019-04-20T08:32:38.946Z,28.45
2019-04-20T08:35:23.161Z,29.01
2019-04-20T08:38:05.736Z,29.33
2019-04-20T08:40:20.821Z,28.87
2019-04-20T08:43:07.385Z,29.32
2019-04-20T08:45:34.903Z,29.26
2019-04-20T08:48:11.019Z,28.56
2019-04-20T08:50:34.126Z,28.90
2019-04-20T08:53:20.777Z,29.24
2019-04-20T08:55:40.112Z,29.33
2019-04-20T08:57:56.558Z,28.69
2019-04-20T09:00:35.952Z,28.89
2019-04-20T09:03:13.167Z,29.42
2019-04-20T09:05:51.210Z,28.56
2019-04-20T09:08:17.873Z,28.57
2019-04-20T09:11:02.708Z,28.47
